Time;durP1;ratioP1;P1;durP2;ratioP2;P2;SDS_P1;SDS_P2;PMS_P1;PMS_P2;Temp;Humidity;BMP_temperature;BMP_pressure;BME280_temperature;BME280_humidity;BME280_pressure;Samples;Min_cycle;Max_cycle;Signal;HPM_P1;HPM_P2
2022/06/02 00:00:00;;;;;;;;;;;7.80;99.90;;;;;;4889410;29;20712;-57
2022/06/02 00:02:28;;;;;;;;;;;7.90;99.90;;;;;;4892902;29;19923;-57
2022/06/02 00:05:19;;;;;;;;;;;7.90;99.90;;;;;;4889659;29;19935;-57
2022/06/02 00:08:00;;;;;;;;;;;7.90;99.90;;;;;;4892957;29;19948;-56
2022/06/02 00:10:33;;;;;;;;;;;7.70;99.90;;;;;;4890716;29;19911;-56
2022/06/02 00:13:17;;;;;;;;;;;7.60;99.90;;;;;;4892537;29;19911;-57
2022/06/02 00:15:45;;;;;;;;;;;7.60;99.90;;;;;;4891272;29;20006;-56
2022/06/02 00:18:12;;;;;;;;;;;7.40;99.90;;;;;;4894289;29;20299;-56
2022/06/02 00:20:43;;;;;;;;;;;7.30;99.90;;;;;;4895230;29;19943;-57
2022/06/02 00:23:08;;;;;;;;;;;7.30;99.90;;;;;;4894447;29;19933;-57
2022/06/02 00:25:35;;;;;;;;;;;7.40;99.90;;;;;;4892719;29;20451;-56
2022/06/02 00:28:20;;;;;;;;;;;7.20;99.90;;;;;;4892395;29;20367;-56
2022/06/02 00:30:52;;;;;;;;;;;7.00;99.90;;;;;;4890518;29;20003;-56
2022/06/02 00:33:33;;;;;;;;;;;6.90;99.90;;;;;;4892520;29;19967;-56
2022/06/02 00:36:00;;;;;;;;;;;6.70;99.90;;;;;;4889300;29;19946;-57
2022/06/02 00:38:28;;;;;;;;;;;6.70;99.90;;;;;;4892761;29;19911;-56
2022/06/02 00:40:56;;;;;;;;;;;6.60;99.90;;;;;;4891911;29;20438;-56
2022/06/02 00:43:25;;;;;;;;;;;6.50;99.90;;;;;;4892397;29;19911;-57
2022/06/02 00:45:54;;;;;;;;;;;6.60;99.90;;;;;;4888760;29;19911;-57
2022/06/02 00:48:25;;;;;;;;;;;6.60;99.90;;;;;;4891602;29;19962;-57
2022/06/02 00:50:57;;;;;;;;;;;6.40;99.90;;;;;;4890097;29;19911;-57
2022/06/02 00:53:41;;;;;;;;;;;6.40;99.90;;;;;;4892208;29;20364;-56
2022/06/02 00:59:14;;;;;;;;;;;6.50;99.90;;;;;;4891317;29;19926;-57
2022/06/02 01:01:39;;;;;;;;;;;6.70;99.90;;;;;;4897046;29;19911;-57
2022/06/02 01:04:11;;;;;;;;;;;6.40;99.90;;;;;;4891793;29;19930;-56
2022/06/02 01:06:50;;;;;;;;;;;6.70;99.90;;;;;;4894750;29;20021;-57
2022/06/02 01:09:34;;;;;;;;;;;6.50;99.90;;;;;;4893426;29;19907;-56
2022/06/02 01:12:09;;;;;;;;;;;6.90;99.90;;;;;;4892292;29;20454;-56
2022/06/02 01:14:53;;;;;;;;;;;6.70;99.90;;;;;;4893918;29;19919;-56
2022/06/02 01:17:39;;;;;;;;;;;6.50;99.90;;;;;;4894078;29;19914;-57
2022/06/02 01:20:20;;;;;;;;;;;6.30;99.90;;;;;;4888112;29;19911;-57
2022/06/02 01:23:04;;;;;;;;;;;6.10;99.90;;;;;;4891498;29;19915;-56
2022/06/02 01:25:39;;;;;;;;;;;6.00;99.90;;;;;;4890568;29;19990;-57
2022/06/02 01:28:22;;;;;;;;;;;6.10;99.90;;;;;;4890227;29;19956;-56
2022/06/02 01:30:53;;;;;;;;;;;6.10;99.90;;;;;;4891138;29;19919;-56
2022/06/02 01:33:25;;;;;;;;;;;6.10;99.90;;;;;;4894855;29;20340;-56
2022/06/02 01:36:09;;;;;;;;;;;6.10;99.90;;;;;;4891456;29;19919;-57
2022/06/02 01:39:04;;;;;;;;;;;6.00;99.90;;;;;;4891438;29;19915;-56
2022/06/02 01:41:30;;;;;;;;;;;6.00;99.90;;;;;;4881284;29;19972;-57
2022/06/02 01:44:08;;;;;;;;;;;6.20;99.90;;;;;;4893864;29;19911;-56
2022/06/02 01:46:38;;;;;;;;;;;6.50;99.90;;;;;;4888260;29;19915;-57
2022/06/02 01:49:06;;;;;;;;;;;6.70;99.90;;;;;;4890967;29;19946;-57
2022/06/02 01:51:35;;;;;;;;;;;6.50;99.90;;;;;;4892353;29;20295;-57
2022/06/02 01:54:20;;;;;;;;;;;6.30;99.90;;;;;;4890680;29;19911;-57
2022/06/02 01:56:52;;;;;;;;;;;6.30;99.90;;;;;;4889323;29;19916;-56
2022/06/02 01:59:29;;;;;;;;;;;6.10;99.90;;;;;;4891389;29;19923;-57
2022/06/02 02:02:03;;;;;;;;;;;6.10;99.90;;;;;;4886696;29;19915;-56
2022/06/02 02:05:04;;;;;;;;;;;6.20;99.90;;;;;;4889278;29;19927;-56
2022/06/02 02:07:29;;;;;;;;;;;6.00;99.90;;;;;;4851039;29;20278;-57
2022/06/02 02:10:07;;;;;;;;;;;5.90;99.90;;;;;;4882643;29;19936;-56
2022/06/02 02:12:35;;;;;;;;;;;5.90;99.90;;;;;;4891344;29;19918;-56
2022/06/02 02:15:19;;;;;;;;;;;5.90;99.90;;;;;;4890405;29;19998;-57
2022/06/02 02:17:55;;;;;;;;;;;5.90;99.90;;;;;;4892885;29;19916;-56
2022/06/02 02:20:35;;;;;;;;;;;6.00;99.90;;;;;;4889192;29;19911;-57
2022/06/02 02:23:05;;;;;;;;;;;5.90;99.90;;;;;;4892972;29;20316;-57
2022/06/02 02:25:42;;;;;;;;;;;5.90;99.90;;;;;;4889421;29;19967;-56
2022/06/02 02:28:14;;;;;;;;;;;5.90;99.90;;;;;;4893243;29;20725;-57
2022/06/02 02:30:46;;;;;;;;;;;5.80;99.90;;;;;;4895836;29;19963;-57
2022/06/02 02:33:11;;;;;;;;;;;5.90;99.90;;;;;;4895732;29;19911;-56
2022/06/02 02:35:40;;;;;;;;;;;5.80;99.90;;;;;;4892950;29;20700;-57
2022/06/02 02:38:10;;;;;;;;;;;5.80;99.90;;;;;;4892993;29;19911;-56
2022/06/02 02:40:54;;;;;;;;;;;5.80;99.90;;;;;;4894358;29;20765;-56
2022/06/02 02:43:40;;;;;;;;;;;5.90;99.90;;;;;;4893381;29;19911;-56
2022/06/02 02:46:13;;;;;;;;;;;5.90;99.90;;;;;;4892597;29;19919;-56
2022/06/02 02:48:42;;;;;;;;;;;5.80;99.90;;;;;;4894389;29;19911;-57
2022/06/02 02:51:13;;;;;;;;;;;6.00;99.90;;;;;;4890909;29;19915;-56
2022/06/02 02:53:44;;;;;;;;;;;5.80;99.90;;;;;;4894683;29;20063;-56
2022/06/02 02:56:16;;;;;;;;;;;5.60;99.90;;;;;;4893690;29;19915;-56
2022/06/02 02:58:45;;;;;;;;;;;5.40;99.90;;;;;;4890826;29;19916;-57
2022/06/02 03:01:16;;;;;;;;;;;5.50;99.90;;;;;;4894447;29;20012;-57
2022/06/02 03:03:59;;;;;;;;;;;5.50;99.90;;;;;;4895051;29;19922;-57
2022/06/02 03:06:27;;;;;;;;;;;5.40;99.90;;;;;;4894526;29;19919;-57
2022/06/02 03:09:03;;;;;;;;;;;5.30;99.90;;;;;;4897440;29;20439;-57
2022/06/02 03:11:51;;;;;;;;;;;5.30;99.90;;;;;;4894927;29;20431;-57
2022/06/02 03:14:17;;;;;;;;;;;5.60;99.90;;;;;;4871412;29;19915;-57
2022/06/02 03:16:43;;;;;;;;;;;5.60;99.90;;;;;;4894230;29;19926;-57
2022/06/02 03:19:23;;;;;;;;;;;5.60;99.90;;;;;;4893016;29;19968;-57
2022/06/02 03:21:57;;;;;;;;;;;5.60;99.90;;;;;;4893176;29;20371;-57
2022/06/02 03:24:52;;;;;;;;;;;5.50;99.90;;;;;;4892243;29;19915;-57
2022/06/02 03:27:32;;;;;;;;;;;5.50;99.90;;;;;;4841162;29;19981;-57
2022/06/02 03:30:18;;;;;;;;;;;5.50;99.90;;;;;;4892332;29;19943;-56
2022/06/02 03:32:50;;;;;;;;;;;5.50;99.90;;;;;;4893412;29;19926;-57
2022/06/02 03:35:16;;;;;;;;;;;5.30;99.90;;;;;;4888887;29;19922;-57
2022/06/02 03:38:00;;;;;;;;;;;5.60;99.90;;;;;;4893592;29;19907;-57
2022/06/02 03:40:33;;;;;;;;;;;5.50;99.90;;;;;;4893713;29;19918;-57
2022/06/02 03:43:22;;;;;;;;;;;5.60;99.90;;;;;;4895224;29;19908;-57
2022/06/02 03:45:59;;;;;;;;;;;5.50;99.90;;;;;;4887635;29;19963;-57
2022/06/02 03:48:27;;;;;;;;;;;5.50;99.90;;;;;;4893240;29;19911;-57
2022/06/02 03:50:53;;;;;;;;;;;5.60;99.90;;;;;;4892822;29;19918;-57
2022/06/02 03:53:21;;;;;;;;;;;5.50;99.90;;;;;;4894617;29;20379;-57
2022/06/02 03:55:58;;;;;;;;;;;5.60;99.90;;;;;;4892540;29;19922;-57
2022/06/02 03:58:23;;;;;;;;;;;5.70;99.90;;;;;;4893151;29;20288;-56
2022/06/02 04:00:51;;;;;;;;;;;5.60;99.90;;;;;;4892779;29;20063;-57
2022/06/02 04:03:37;;;;;;;;;;;5.50;99.90;;;;;;4893238;29;19915;-57
2022/06/02 04:06:03;;;;;;;;;;;5.60;99.90;;;;;;4881605;29;19923;-56
2022/06/02 04:08:47;;;;;;;;;;;5.60;99.90;;;;;;4894672;29;19918;-57
2022/06/02 04:11:24;;;;;;;;;;;5.70;99.90;;;;;;4892291;29;19911;-57
2022/06/02 04:14:08;;;;;;;;;;;6.10;99.90;;;;;;4890078;29;20376;-57
2022/06/02 04:16:42;;;;;;;;;;;6.00;99.90;;;;;;4889866;29;20368;-57
2022/06/02 04:22:21;;;;;;;;;;;6.20;99.90;;;;;;4893016;29;19934;-57
2022/06/02 04:24:50;;;;;;;;;;;6.30;99.90;;;;;;4892474;29;19911;-57
2022/06/02 04:27:31;;;;;;;;;;;6.30;99.90;;;;;;4894612;29;19911;-57
2022/06/02 04:30:00;;;;;;;;;;;6.50;99.90;;;;;;4889717;29;19950;-57
2022/06/02 04:32:41;;;;;;;;;;;6.50;99.90;;;;;;4893304;29;19934;-58
2022/06/02 04:35:16;;;;;;;;;;;6.70;99.90;;;;;;4887888;29;19919;-57
2022/06/02 04:37:47;;;;;;;;;;;6.80;99.90;;;;;;4892838;29;19911;-57
2022/06/02 04:40:26;;;;;;;;;;;6.90;99.90;;;;;;4890630;29;19919;-57
2022/06/02 04:42:54;;;;;;;;;;;7.00;99.90;;;;;;4892160;29;20021;-57
2022/06/02 04:45:44;;;;;;;;;;;7.00;99.90;;;;;;4892130;29;19918;-57
2022/06/02 04:48:18;;;;;;;;;;;7.10;99.90;;;;;;4889150;29;19911;-57
2022/06/02 04:50:49;;;;;;;;;;;7.30;99.90;;;;;;4891040;29;19943;-57
2022/06/02 04:53:35;;;;;;;;;;;7.40;99.90;;;;;;4892389;29;19959;-57
2022/06/02 04:56:13;;;;;;;;;;;7.50;99.90;;;;;;4881648;29;19915;-57
2022/06/02 04:58:54;;;;;;;;;;;7.50;99.90;;;;;;4892193;29;20463;-57
2022/06/02 05:01:20;;;;;;;;;;;7.60;99.90;;;;;;4890222;29;19915;-57
2022/06/02 05:03:54;;;;;;;;;;;7.70;99.90;;;;;;4891517;29;20307;-57
2022/06/02 05:06:38;;;;;;;;;;;7.70;99.90;;;;;;4896723;29;19916;-57
2022/06/02 05:09:13;;;;;;;;;;;7.80;99.90;;;;;;4896346;29;19911;-57
2022/06/02 05:11:47;;;;;;;;;;;8.00;99.90;;;;;;4891895;29;19911;-58
2022/06/02 05:14:29;;;;;;;;;;;8.00;99.90;;;;;;4892194;29;20368;-57
2022/06/02 05:16:55;;;;;;;;;;;8.10;99.90;;;;;;4888994;29;19925;-57
2022/06/02 05:19:39;;;;;;;;;;;8.20;99.90;;;;;;4891217;29;19919;-58
2022/06/02 05:22:19;;;;;;;;;;;8.40;99.90;;;;;;4887720;29;20673;-57
2022/06/02 05:24:51;;;;;;;;;;;8.50;99.90;;;;;;4891217;29;20589;-57
2022/06/02 05:27:16;;;;;;;;;;;8.60;99.90;;;;;;4887516;29;19911;-58
2022/06/02 05:30:00;;;;;;;;;;;8.60;99.90;;;;;;4890943;29;19927;-57
2022/06/02 05:32:45;;;;;;;;;;;8.70;99.90;;;;;;4889488;29;19916;-57
2022/06/02 05:35:31;;;;;;;;;;;8.80;99.90;;;;;;4888615;29;19916;-56
2022/06/02 05:38:00;;;;;;;;;;;9.00;99.90;;;;;;4880007;29;19911;-57
2022/06/02 05:40:39;;;;;;;;;;;9.20;99.90;;;;;;4890587;29;20314;-56
2022/06/02 05:43:10;;;;;;;;;;;9.40;99.90;;;;;;4889598;29;19912;-56
2022/06/02 05:45:48;;;;;;;;;;;9.50;99.90;;;;;;4893547;29;19960;-57
2022/06/02 05:48:29;;;;;;;;;;;9.60;99.90;;;;;;4891952;29;19967;-57
2022/06/02 05:50:58;;;;;;;;;;;9.70;99.90;;;;;;4890117;29;20002;-57
2022/06/02 05:53:41;;;;;;;;;;;9.80;99.90;;;;;;4890902;29;19912;-57
2022/06/02 05:56:07;;;;;;;;;;;9.90;99.90;;;;;;4890697;29;19959;-57
2022/06/02 05:58:36;;;;;;;;;;;10.10;99.90;;;;;;4890912;29;19911;-58
2022/06/02 06:01:13;;;;;;;;;;;10.20;99.90;;;;;;4889540;29;19959;-57
2022/06/02 06:03:39;;;;;;;;;;;10.30;99.90;;;;;;4888509;29;19974;-57
2022/06/02 06:06:37;;;;;;;;;;;10.30;99.90;;;;;;4890727;29;19923;-57
2022/06/02 06:09:05;;;;;;;;;;;10.40;99.90;;;;;;4868574;29;19951;-57
2022/06/02 06:11:43;;;;;;;;;;;10.40;99.90;;;;;;4892159;29;19915;-56
2022/06/02 06:14:38;;;;;;;;;;;10.50;99.90;;;;;;4889773;29;19959;-57
2022/06/02 06:17:18;;;;;;;;;;;10.60;99.90;;;;;;4823312;29;19923;-58
2022/06/02 06:19:54;;;;;;;;;;;10.60;99.90;;;;;;4890745;29;19911;-58
2022/06/02 06:22:23;;;;;;;;;;;10.70;99.90;;;;;;4887297;29;19911;-57
2022/06/02 06:25:03;;;;;;;;;;;10.80;99.90;;;;;;4891787;29;19919;-57
2022/06/02 06:27:39;;;;;;;;;;;10.90;99.90;;;;;;4892643;29;19911;-57
2022/06/02 06:30:04;;;;;;;;;;;11.10;99.90;;;;;;4890562;29;19915;-57
2022/06/02 06:32:51;;;;;;;;;;;11.10;99.90;;;;;;4890418;29;19926;-58
2022/06/02 06:35:36;;;;;;;;;;;11.20;99.90;;;;;;4887092;29;19911;-57
2022/06/02 06:38:16;;;;;;;;;;;11.30;99.90;;;;;;4889000;29;19912;-57
2022/06/02 06:40:42;;;;;;;;;;;11.40;99.90;;;;;;4890110;29;19954;-57
2022/06/02 06:43:23;;;;;;;;;;;11.50;99.90;;;;;;4889229;29;20037;-57
2022/06/02 06:45:59;;;;;;;;;;;11.60;99.90;;;;;;4890210;29;19918;-57
2022/06/02 06:48:31;;;;;;;;;;;11.60;99.90;;;;;;4890605;29;19911;-57
2022/06/02 06:51:01;;;;;;;;;;;11.60;99.90;;;;;;4889754;29;20382;-57
2022/06/02 06:53:31;;;;;;;;;;;11.80;99.90;;;;;;4890177;29;20635;-57
2022/06/02 06:56:01;;;;;;;;;;;12.00;99.90;;;;;;4889335;29;19990;-57
2022/06/02 06:58:46;;;;;;;;;;;12.20;99.90;;;;;;4889967;29;19918;-58
2022/06/02 07:01:34;;;;;;;;;;;12.40;99.90;;;;;;4885994;29;19915;-57
2022/06/02 07:04:18;;;;;;;;;;;12.80;99.90;;;;;;4887290;29;20015;-57
2022/06/02 07:06:49;;;;;;;;;;;13.20;99.90;;;;;;4895022;29;19955;-57
2022/06/02 07:09:27;;;;;;;;;;;13.60;99.90;;;;;;4891886;29;19919;-58
2022/06/02 07:14:59;;;;;;;;;;;13.90;99.90;;;;;;4894019;29;19954;-58
2022/06/02 07:17:35;;;;;;;;;;;14.00;99.90;;;;;;4893343;29;19915;-57
2022/06/02 07:20:12;;;;;;;;;;;14.00;99.90;;;;;;4892946;29;20348;-56
2022/06/02 07:22:48;;;;;;;;;;;14.30;99.90;;;;;;4891686;29;20085;-57
2022/06/02 07:25:33;;;;;;;;;;;14.10;99.90;;;;;;4892967;29;19912;-57
2022/06/02 07:27:59;;;;;;;;;;;;;;;;;;4892617;29;19918;-57
2022/06/02 07:30:43;;;;;;;;;;;13.70;99.90;;;;;;4892818;29;20463;-57
2022/06/02 07:33:11;;;;;;;;;;;13.60;99.90;;;;;;4892857;29;19912;-57
2022/06/02 07:35:56;;;;;;;;;;;13.50;99.90;;;;;;4891209;29;19923;-58
2022/06/02 07:38:30;;;;;;;;;;;13.70;99.90;;;;;;4893000;29;19915;-57
2022/06/02 07:41:15;;;;;;;;;;;14.10;99.90;;;;;;4892804;29;20027;-58
2022/06/02 07:43:41;;;;;;;;;;;14.30;99.90;;;;;;4891427;29;20360;-57
2022/06/02 07:46:24;;;;;;;;;;;14.90;99.90;;;;;;4893580;29;19908;-58
2022/06/02 07:49:10;;;;;;;;;;;15.00;99.90;;;;;;4893632;29;20375;-57
2022/06/02 07:51:40;;;;;;;;;;;14.90;99.90;;;;;;4892350;29;20368;-58
2022/06/02 07:54:21;;;;;;;;;;;15.20;99.90;;;;;;4892126;29;19912;-58
2022/06/02 07:56:49;;;;;;;;;;;15.50;99.90;;;;;;4893641;29;19916;-57
2022/06/02 07:59:16;;;;;;;;;;;15.70;99.90;;;;;;4892119;29;19918;-57
2022/06/02 08:02:06;;;;;;;;;;;15.90;99.90;;;;;;4892409;29;19951;-57
2022/06/02 08:04:45;;;;;;;;;;;16.10;99.90;;;;;;4867142;29;19927;-57
2022/06/02 08:07:11;;;;;;;;;;;16.80;99.90;;;;;;4892669;29;19911;-58
2022/06/02 08:09:46;;;;;;;;;;;17.70;99.90;;;;;;4892733;29;19911;-58
2022/06/02 08:12:22;;;;;;;;;;;18.50;99.90;;;;;;4891821;29;19955;-58
2022/06/02 08:14:47;;;;;;;;;;;18.50;99.90;;;;;;4889270;29;20522;-58
2022/06/02 08:17:20;;;;;;;;;;;17.80;99.90;;;;;;4894476;29;19915;-57
2022/06/02 08:19:57;;;;;;;;;;;17.40;99.90;;;;;;4892349;29;19911;-57
2022/06/02 08:22:27;;;;;;;;;;;17.30;99.90;;;;;;4891872;29;19939;-57
2022/06/02 08:24:56;;;;;;;;;;;17.60;99.90;;;;;;4891367;29;20432;-58
2022/06/02 08:27:40;;;;;;;;;;;17.50;99.90;;;;;;4893451;29;19972;-58
2022/06/02 08:30:19;;;;;;;;;;;17.30;99.90;;;;;;4891687;29;19914;-58
2022/06/02 08:32:44;;;;;;;;;;;16.70;99.90;;;;;;4892094;29;20411;-58
2022/06/02 08:35:19;;;;;;;;;;;16.30;99.90;;;;;;4889675;29;20014;-57
2022/06/02 08:37:51;;;;;;;;;;;16.30;99.90;;;;;;4893356;29;19919;-58
2022/06/02 08:40:35;;;;;;;;;;;16.50;99.90;;;;;;4891648;29;19911;-57
2022/06/02 08:43:01;;;;;;;;;;;17.50;99.90;;;;;;4891265;29;19918;-57
2022/06/02 08:45:38;;;;;;;;;;;18.20;99.90;;;;;;4891606;29;19912;-58
2022/06/02 08:48:15;;;;;;;;;;;18.70;99.90;;;;;;4888310;29;20427;-58
2022/06/02 08:50:59;;;;;;;;;;;18.10;99.90;;;;;;4891595;29;20008;-57
2022/06/02 08:53:44;;;;;;;;;;;18.60;99.90;;;;;;4889233;29;20323;-58
2022/06/02 08:56:10;;;;;;;;;;;19.80;99.80;;;;;;4889481;29;19919;-58
2022/06/02 08:58:41;;;;;;;;;;;19.60;97.80;;;;;;4891727;29;19959;-58
2022/06/02 09:01:13;;;;;;;;;;;20.40;96.90;;;;;;4890957;29;20415;-58
2022/06/02 09:03:45;;;;;;;;;;;21.00;93.70;;;;;;4885960;29;20309;-57
2022/06/02 09:06:26;;;;;;;;;;;21.00;92.50;;;;;;4893943;29;19942;-58
2022/06/02 09:09:13;;;;;;;;;;;20.70;92.80;;;;;;4891599;29;20005;-59
2022/06/02 09:11:59;;;;;;;;;;;20.80;93.50;;;;;;4893427;29;19992;-58
2022/06/02 09:14:30;;;;;;;;;;;22.10;93.20;;;;;;4890818;29;20426;-58
2022/06/02 09:16:57;;;;;;;;;;;22.30;91.80;;;;;;4890114;29;19978;-58
2022/06/02 09:19:34;;;;;;;;;;;22.40;91.60;;;;;;4891263;29;19915;-58
2022/06/02 09:22:12;;;;;;;;;;;22.10;90.80;;;;;;4889643;29;19918;-59
2022/06/02 09:24:56;;;;;;;;;;;21.20;91.00;;;;;;4890399;29;20325;-58
2022/06/02 09:27:57;;;;;;;;;;;19.30;92.70;;;;;;4886887;29;19919;-58
2022/06/02 09:30:30;;;;;;;;;;;18.60;94.20;;;;;;4850355;29;19919;-57
2022/06/02 09:36:15;;;;;;;;;;;16.80;99.90;;;;;;4889609;29;19930;-58
2022/06/02 09:39:00;;;;;;;;;;;16.70;98.10;;;;;;4890934;29;19974;-58
2022/06/02 09:41:25;;;;;;;;;;;16.60;99.90;;;;;;4888752;29;19919;-58
2022/06/02 09:43:57;;;;;;;;;;;17.00;97.50;;;;;;4890765;29;19918;-58
2022/06/02 09:46:28;;;;;;;;;;;18.80;97.60;;;;;;4886786;29;19911;-57
2022/06/02 09:49:00;;;;;;;;;;;20.40;93.30;;;;;;4893129;29;20333;-58
2022/06/02 09:51:38;;;;;;;;;;;21.40;90.40;;;;;;4892687;29;19966;-58
2022/06/02 09:54:30;;;;;;;;;;;22.60;83.60;;;;;;4887756;29;19912;-58
2022/06/02 09:56:55;;;;;;;;;;;23.70;85.80;;;;;;4887361;29;19970;-58
2022/06/02 09:59:31;;;;;;;;;;;22.70;84.80;;;;;;4891117;29;19998;-59
2022/06/02 10:02:32;;;;;;;;;;;22.60;88.10;;;;;;4890426;29;20002;-58
2022/06/02 10:05:23;;;;;;;;;;;23.10;85.00;;;;;;4836721;29;19924;-58
2022/06/02 10:07:52;;;;;;;;;;;24.30;82.20;;;;;;4888652;29;19919;-58
2022/06/02 10:10:44;;;;;;;;;;;24.00;76.50;;;;;;4889683;29;19915;-58
2022/06/02 10:13:15;;;;;;;;;;;23.60;81.10;;;;;;4888192;29;20024;-58
2022/06/02 10:15:44;;;;;;;;;;;23.20;79.60;;;;;;4890257;29;19919;-58
2022/06/02 10:18:27;;;;;;;;;;;23.80;82.20;;;;;;4889993;29;20348;-58
2022/06/02 10:21:08;;;;;;;;;;;25.10;77.80;;;;;;4889978;29;19915;-58
2022/06/02 10:23:42;;;;;;;;;;;25.70;76.20;;;;;;4884676;29;19907;-59
2022/06/02 10:26:27;;;;;;;;;;;24.10;80.30;;;;;;4889636;29;20036;-59
2022/06/02 10:29:07;;;;;;;;;;;24.20;77.70;;;;;;4890571;29;19915;-59
2022/06/02 10:31:51;;;;;;;;;;;23.50;76.10;;;;;;4892456;29;20043;-58
2022/06/02 10:34:16;;;;;;;;;;;21.60;77.90;;;;;;4884686;29;19919;-58
2022/06/02 10:36:51;;;;;;;;;;;20.40;81.10;;;;;;4890113;29;19930;-58
2022/06/02 10:39:35;;;;;;;;;;;19.50;85.90;;;;;;4890822;29;20578;-57
2022/06/02 10:42:11;;;;;;;;;;;19.30;88.00;;;;;;4889016;29;19939;-57
2022/06/02 10:45:02;;;;;;;;;;;18.90;90.10;;;;;;4890038;29;19918;-57
2022/06/02 10:47:37;;;;;;;;;;;19.50;90.20;;;;;;4889513;29;20007;-57
2022/06/02 10:50:08;;;;;;;;;;;19.50;87.60;;;;;;4894004;29;19911;-57
2022/06/02 10:52:33;;;;;;;;;;;19.60;85.90;;;;;;4893829;29;19907;-58
2022/06/02 10:55:07;;;;;;;;;;;20.30;86.00;;;;;;4893734;29;20429;-58
2022/06/02 10:57:42;;;;;;;;;;;21.50;83.70;;;;;;4893767;29;20002;-58
2022/06/02 11:00:26;;;;;;;;;;;21.70;81.90;;;;;;4893233;29;20002;-58
2022/06/02 11:03:10;;;;;;;;;;;20.90;83.70;;;;;;4893821;29;19911;-57
2022/06/02 11:05:36;;;;;;;;;;;20.10;85.40;;;;;;4893414;29;20006;-58
2022/06/02 11:08:14;;;;;;;;;;;20.20;85.30;;;;;;4893657;29;19923;-57
2022/06/02 11:10:58;;;;;;;;;;;19.60;86.60;;;;;;4895958;29;19919;-58
2022/06/02 11:13:42;;;;;;;;;;;19.50;87.50;;;;;;4893679;29;19955;-58
2022/06/02 11:16:26;;;;;;;;;;;19.50;85.00;;;;;;4895891;29;19975;-58
2022/06/02 11:19:10;;;;;;;;;;;19.60;86.20;;;;;;4897962;29;19930;-58
2022/06/02 11:21:50;;;;;;;;;;;18.60;90.30;;;;;;4895814;29;19911;-58
2022/06/02 11:24:19;;;;;;;;;;;18.20;91.20;;;;;;4893324;29;19930;-58
2022/06/02 11:26:50;;;;;;;;;;;19.50;90.20;;;;;;4895959;29;20283;-57
2022/06/02 11:29:34;;;;;;;;;;;21.40;85.00;;;;;;4893661;29;19911;-58
2022/06/02 11:32:12;;;;;;;;;;;22.00;82.40;;;;;;4891873;29;19922;-57
2022/06/02 11:34:52;;;;;;;;;;;22.80;79.90;;;;;;4891683;29;19918;-58
2022/06/02 11:37:27;;;;;;;;;;;23.40;79.40;;;;;;4892380;29;19973;-57
2022/06/02 11:40:07;;;;;;;;;;;23.10;78.70;;;;;;4892942;29;20439;-58
2022/06/02 11:42:51;;;;;;;;;;;23.10;77.00;;;;;;4892245;29;19965;-58
2022/06/02 11:45:17;;;;;;;;;;;23.60;76.40;;;;;;4891075;29;19919;-59
2022/06/02 11:48:01;;;;;;;;;;;24.20;74.70;;;;;;4892766;29;20272;-58
2022/06/02 11:50:33;;;;;;;;;;;24.40;71.50;;;;;;4890396;29;19919;-58
2022/06/02 11:53:22;;;;;;;;;;;24.70;74.50;;;;;;4892671;29;19974;-58
2022/06/02 11:55:48;;;;;;;;;;;;;;;;;;4891719;29;19915;-58
2022/06/02 11:58:13;;;;;;;;;;;24.20;75.60;;;;;;4891852;29;19918;-58
2022/06/02 12:00:48;;;;;;;;;;;23.70;77.80;;;;;;4891182;29;19998;-58
2022/06/02 12:03:13;;;;;;;;;;;24.80;75.90;;;;;;4891754;29;19911;-58
2022/06/02 12:06:05;;;;;;;;;;;26.70;73.90;;;;;;4892174;29;19923;-59
2022/06/02 12:08:58;;;;;;;;;;;26.60;71.90;;;;;;4890694;29;19912;-58
2022/06/02 12:11:28;;;;;;;;;;;25.30;70.10;;;;;;4890365;29;19918;-57
2022/06/02 12:13:57;;;;;;;;;;;24.30;71.40;;;;;;4892002;29;20321;-58
2022/06/02 12:16:22;;;;;;;;;;;24.50;71.70;;;;;;4892682;29;19919;-58
2022/06/02 12:18:57;;;;;;;;;;;23.90;75.10;;;;;;4893025;29;19915;-58
2022/06/02 12:21:33;;;;;;;;;;;23.40;72.00;;;;;;4891911;29;19989;-58
2022/06/02 12:24:23;;;;;;;;;;;25.20;70.80;;;;;;4888245;29;20022;-58
2022/06/02 12:26:59;;;;;;;;;;;24.90;70.30;;;;;;4889188;29;19911;-58
2022/06/02 12:29:55;;;;;;;;;;;26.40;68.10;;;;;;4891570;29;19939;-59
2022/06/02 12:32:29;;;;;;;;;;;28.00;65.50;;;;;;4891011;29;19922;-58
2022/06/02 12:35:07;;;;;;;;;;;28.20;65.20;;;;;;4883862;29;19915;-58
2022/06/02 12:37:48;;;;;;;;;;;28.00;62.30;;;;;;4889577;29;19915;-58
2022/06/02 12:40:32;;;;;;;;;;;27.40;65.90;;;;;;4889439;29;20359;-58
2022/06/02 12:43:22;;;;;;;;;;;28.00;65.10;;;;;;4889625;29;19915;-58
2022/06/02 12:45:47;;;;;;;;;;;28.60;62.80;;;;;;4890091;29;19918;-58
2022/06/02 12:48:31;;;;;;;;;;;28.30;61.90;;;;;;4893700;29;19907;-57
2022/06/02 12:51:17;;;;;;;;;;;26.20;63.70;;;;;;4888585;29;19915;-58
2022/06/02 12:53:43;;;;;;;;;;;26.70;64.10;;;;;;4891638;29;19915;-58
2022/06/02 12:56:11;;;;;;;;;;;26.20;65.60;;;;;;4892479;29;19922;-58
2022/06/02 12:58:45;;;;;;;;;;;26.40;66.30;;;;;;4891020;29;19966;-58
2022/06/02 13:01:20;;;;;;;;;;;26.60;64.80;;;;;;4891371;29;19975;-58
2022/06/02 13:04:04;;;;;;;;;;;26.70;64.90;;;;;;4885817;29;20001;-58
2022/06/02 13:06:49;;;;;;;;;;;26.70;64.90;;;;;;4890836;29;19991;-58
2022/06/02 13:09:30;;;;;;;;;;;29.60;59.90;;;;;;4889123;29;20002;-58
2022/06/02 13:11:55;;;;;;;;;;;26.30;60.80;;;;;;4888194;29;19923;-59
2022/06/02 13:14:24;;;;;;;;;;;27.10;62.70;;;;;;4890751;29;19908;-58
2022/06/02 13:16:49;;;;;;;;;;;28.50;59.20;;;;;;4892717;29;20291;-58
2022/06/02 13:19:33;;;;;;;;;;;29.10;57.40;;;;;;4891738;29;20006;-58
2022/06/02 13:22:07;;;;;;;;;;;27.60;57.50;;;;;;4888656;29;19918;-58
2022/06/02 13:24:52;;;;;;;;;;;26.90;62.10;;;;;;4888890;29;19917;-58
2022/06/02 13:27:36;;;;;;;;;;;27.70;61.40;;;;;;4891409;29;19929;-58
2022/06/02 13:30:21;;;;;;;;;;;28.10;60.90;;;;;;4893138;29;19915;-58
2022/06/02 13:32:49;;;;;;;;;;;28.10;59.20;;;;;;4887703;29;19954;-58
2022/06/02 13:35:35;;;;;;;;;;;29.30;57.40;;;;;;4889256;29;19919;-58
2022/06/02 13:38:09;;;;;;;;;;;29.80;56.50;;;;;;4888764;29;20327;-58
2022/06/02 13:40:49;;;;;;;;;;;27.90;57.50;;;;;;4890133;29;19911;-58
2022/06/02 13:43:34;;;;;;;;;;;26.80;58.20;;;;;;4887793;29;19966;-58
2022/06/02 13:46:18;;;;;;;;;;;26.90;57.00;;;;;;4887001;29;19911;-58
2022/06/02 13:49:10;;;;;;;;;;;28.40;59.20;;;;;;4890622;29;19915;-58
2022/06/02 13:51:35;;;;;;;;;;;27.90;59.60;;;;;;4872982;29;19911;-58
2022/06/02 14:00:01;;;;;;;;;;;27.10;58.80;;;;;;4890663;29;20562;-58
2022/06/02 14:02:46;;;;;;;;;;;29.00;56.50;;;;;;4889856;29;19911;-58
2022/06/02 14:05:30;;;;;;;;;;;30.00;56.20;;;;;;4886541;29;19927;-59
2022/06/02 14:07:55;;;;;;;;;;;31.20;55.30;;;;;;4886283;29;20002;-59
2022/06/02 14:10:39;;;;;;;;;;;30.70;56.20;;;;;;4892224;29;20031;-58
2022/06/02 14:13:24;;;;;;;;;;;31.00;56.80;;;;;;4886942;29;19947;-58
2022/06/02 14:16:00;;;;;;;;;;;28.00;55.70;;;;;;4890205;29;19922;-58
2022/06/02 14:18:44;;;;;;;;;;;25.90;59.10;;;;;;4889770;29;19911;-57
2022/06/02 14:21:19;;;;;;;;;;;25.00;61.80;;;;;;4890394;29;19931;-58
2022/06/02 14:23:47;;;;;;;;;;;28.00;56.10;;;;;;4889405;29;20025;-58
2022/06/02 14:26:22;;;;;;;;;;;26.80;55.60;;;;;;4890413;29;19959;-58
2022/06/02 14:29:06;;;;;;;;;;;28.00;56.30;;;;;;4887534;29;19979;-58
2022/06/02 14:31:51;;;;;;;;;;;27.70;57.50;;;;;;4889273;29;19911;-57
2022/06/02 14:34:27;;;;;;;;;;;29.20;57.50;;;;;;4888312;29;19962;-58
2022/06/02 14:36:53;;;;;;;;;;;28.80;55.30;;;;;;4887408;29;19915;-58
2022/06/02 14:39:24;;;;;;;;;;;27.80;54.80;;;;;;4888300;29;20587;-58
2022/06/02 14:41:52;;;;;;;;;;;28.00;57.10;;;;;;4889774;29;19911;-57
2022/06/02 14:44:18;;;;;;;;;;;27.90;56.80;;;;;;4889976;29;19923;-58
2022/06/02 14:46:49;;;;;;;;;;;28.70;55.80;;;;;;4890289;29;19907;-58
2022/06/02 14:49:31;;;;;;;;;;;29.00;56.90;;;;;;4892734;29;19912;-58
2022/06/02 14:52:13;;;;;;;;;;;28.90;55.50;;;;;;4891420;29;19977;-58
2022/06/02 14:54:41;;;;;;;;;;;28.20;55.70;;;;;;4889641;29;19915;-58
2022/06/02 14:57:19;;;;;;;;;;;28.90;54.10;;;;;;4890455;29;19912;-58
2022/06/02 14:59:47;;;;;;;;;;;28.20;57.70;;;;;;4883894;29;19960;-58
2022/06/02 15:02:31;;;;;;;;;;;27.90;57.10;;;;;;4889524;29;19915;-58
2022/06/02 15:05:12;;;;;;;;;;;27.90;55.60;;;;;;4885819;29;19927;-58
2022/06/02 15:07:43;;;;;;;;;;;26.20;56.80;;;;;;4889201;29;19918;-59
2022/06/02 15:10:34;;;;;;;;;;;26.70;59.50;;;;;;4889697;29;19915;-58
2022/06/02 15:13:20;;;;;;;;;;;28.70;56.40;;;;;;4870560;29;20367;-58
2022/06/02 15:15:49;;;;;;;;;;;27.80;57.90;;;;;;4887864;29;20008;-58
2022/06/02 15:18:34;;;;;;;;;;;27.80;55.30;;;;;;4892422;29;19927;-58
2022/06/02 15:20:59;;;;;;;;;;;27.40;56.20;;;;;;4888641;29;19937;-58
2022/06/02 15:23:46;;;;;;;;;;;29.00;56.50;;;;;;4889333;29;19918;-57
2022/06/02 15:26:21;;;;;;;;;;;26.70;55.70;;;;;;4889416;29;19971;-58
2022/06/02 15:28:50;;;;;;;;;;;26.60;56.90;;;;;;4891626;29;19908;-58
2022/06/02 15:31:15;;;;;;;;;;;27.10;56.60;;;;;;4891961;29;19967;-57
2022/06/02 15:33:59;;;;;;;;;;;28.70;54.30;;;;;;4888663;29;19919;-58